createdAt,value
2019-03-25T20:34:32.199Z,2.5
2019-03-25T20:34:46.735Z,2.6
2019-03-25T20:34:59.945Z,2.4
2019-03-25T20:35:12.384Z,2.3
2019-03-25T20:35:26.562Z,2.6
2019-03-25T20:35:39.114Z,3.2
2019-03-25T20:35:51.740Z,3.2
2019-03-25T20:36:04.283Z,3
2019-03-25T20:36:17.020Z,2.3
2019-03-25T20:36:29.565Z,3.3
2019-03-25T20:36:43.218Z,3.7
2019-03-25T20:36:55.807Z,2.7
2019-03-25T20:37:08.415Z,2.8
2019-03-25T20:37:21.027Z,2.5
2019-03-25T20:37:33.821Z,2.6
2019-03-25T20:37:46.567Z,2.4
2019-03-25T20:37:59.480Z,2.4
2019-03-25T20:38:12.419Z,2.5
2019-03-25T20:38:25.138Z,2.6
2019-03-25T20:38:37.842Z,2.5
2019-03-25T20:38:53.921Z,2.9
2019-03-25T20:39:06.987Z,3.3
2019-03-25T20:39:20.920Z,2.7
2019-03-25T20:39:33.755Z,2.8
2019-03-25T20:39:46.555Z,2.5
2019-03-25T20:39:59.073Z,2.3
2019-03-25T20:40:11.806Z,2.5
2019-03-25T20:40:24.373Z,3.2
2019-03-25T20:40:37.048Z,2.7
2019-03-25T20:40:49.377Z,2
2019-03-25T20:41:03.003Z,2.1
2019-03-25T20:41:15.743Z,2.5
2019-03-25T20:41:28.226Z,2.8
2019-03-25T20:41:40.790Z,2.4
2019-03-25T20:41:53.257Z,2.4
2019-03-25T20:42:06.810Z,2.3
2019-03-25T20:42:19.370Z,2.2
2019-03-25T20:42:31.681Z,2.6
2019-03-25T20:42:46.136Z,2.2
2019-03-25T20:42:58.670Z,2.1
2019-03-25T20:43:11.171Z,2.5
2019-03-25T20:43:23.591Z,2.5
2019-03-25T20:43:36.959Z,2.8
2019-03-25T20:43:49.496Z,2.5
2019-03-25T20:44:02.658Z,2.2
2019-03-25T20:44:15.731Z,2.3
2019-03-25T20:44:27.879Z,2.8
2019-03-25T20:44:39.875Z,2.4
2019-03-25T20:44:52.104Z,2.5
2019-03-25T20:45:04.335Z,2.1
2019-03-25T20:45:19.632Z,2.3
2019-03-25T20:45:32.959Z,2.1
2019-03-25T20:45:45.331Z,2
2019-03-25T20:45:57.661Z,2.1
2019-03-25T20:46:09.966Z,2.4
2019-03-25T20:46:22.828Z,2.2
2019-03-25T20:46:35.383Z,2.1
2019-03-25T20:46:47.670Z,2.4
2019-03-25T20:46:59.842Z,2.4
2019-03-25T20:47:12.129Z,2.3
2019-03-25T20:47:24.309Z,2
2019-03-25T20:47:36.478Z,2
2019-03-25T20:47:48.737Z,2.3
2019-03-25T20:48:01.032Z,2.4
2019-03-25T20:48:13.197Z,2.5
2019-03-25T20:48:25.384Z,2.5
2019-03-25T20:48:37.582Z,2.1
2019-03-25T20:48:50.749Z,2.2
2019-03-25T20:49:02.969Z,2.1
2019-03-25T20:49:14.988Z,2.7
2019-03-25T20:49:27.157Z,2.9
2019-03-25T20:49:39.429Z,3
2019-03-25T20:49:51.516Z,2.1
2019-03-25T20:50:03.653Z,1.9
2019-03-25T20:50:15.811Z,2
2019-03-25T20:50:28.006Z,2.2
2019-03-25T20:50:40.335Z,2.2
2019-03-25T20:50:52.530Z,2
2019-03-25T20:51:04.713Z,2.2
2019-03-25T20:51:17.020Z,2.4
2019-03-25T20:51:29.261Z,3.1
2019-03-25T20:51:41.418Z,3.4
2019-03-25T20:51:53.504Z,2.3
2019-03-25T20:52:05.565Z,2.6
2019-03-25T20:52:17.671Z,2.5
2019-03-25T20:52:31.120Z,2.4
2019-03-25T20:52:43.667Z,2.5
2019-03-25T20:52:57.066Z,2.8
2019-03-25T20:53:09.505Z,2.5
2019-03-25T20:53:22.775Z,2.1
2019-03-25T20:53:35.159Z,2.1
2019-03-25T20:53:47.545Z,2.3
2019-03-25T20:53:59.728Z,2.6
2019-03-25T20:54:11.887Z,2.9
2019-03-25T20:54:24.035Z,3
2019-03-25T20:54:36.139Z,2.3
2019-03-25T20:54:48.280Z,2.3
2019-03-25T20:55:01.341Z,2.4
2019-03-25T20:55:13.441Z,2.2
2019-03-25T20:55:25.549Z,1.9
2019-03-25T20:55:37.626Z,1.8
2019-03-25T20:55:50.741Z,2.1
2019-03-25T20:56:02.901Z,2.4
2019-03-25T20:56:16.018Z,2.5
2019-03-25T20:56:29.120Z,2.9
2019-03-25T20:56:42.396Z,2.9
2019-03-25T20:56:54.824Z,2.3
2019-03-25T20:57:07.101Z,2.1
2019-03-25T20:57:19.413Z,2.5
2019-03-25T20:57:31.702Z,2.6
2019-03-25T20:57:45.939Z,2.2
2019-03-25T20:57:59.226Z,2.5
2019-03-25T20:58:11.470Z,2.3
2019-03-25T20:58:23.558Z,2
2019-03-25T20:58:35.700Z,2.2
2019-03-25T20:58:48.080Z,2.3
2019-03-25T20:59:00.322Z,2.1
2019-03-25T20:59:12.724Z,2.8
2019-03-25T20:59:25.280Z,2.9
2019-03-25T20:59:37.838Z,2.5
2019-03-25T20:59:50.336Z,2.6
2019-03-25T21:00:02.820Z,2.9
2019-03-25T21:00:15.259Z,3
2019-03-25T21:00:27.632Z,2.1
2019-03-25T21:00:41.015Z,2.2
2019-03-25T21:00:54.380Z,2.3
2019-03-25T21:01:06.685Z,2.2
2019-03-25T21:01:19.070Z,2.3
2019-03-25T21:01:31.604Z,2.3
2019-03-25T21:01:44.030Z,2.2
2019-03-25T21:01:56.447Z,2.3
2019-03-25T21:02:08.933Z,2.7
2019-03-25T21:02:21.533Z,2.8
2019-03-25T21:02:44.661Z,2.7
2019-03-25T21:02:53.451Z,2.5
2019-03-25T21:03:05.834Z,2
2019-03-25T21:03:18.397Z,1.7
2019-03-25T21:03:31.101Z,1.8
2019-03-25T21:03:43.521Z,2.1
2019-03-25T21:03:56.146Z,2.4
2019-03-25T21:04:09.772Z,2.3
2019-03-25T21:04:22.266Z,2
2019-03-25T21:04:34.835Z,2.4
2019-03-25T21:04:47.397Z,2.9
2019-03-25T21:05:00.129Z,3.1
2019-03-25T21:05:12.941Z,2.8
2019-03-25T21:05:26.633Z,2.4
2019-03-25T21:05:39.374Z,2.1
2019-03-25T21:05:52.019Z,2.6
2019-03-25T21:06:05.029Z,3.1
2019-03-25T21:06:17.798Z,3
2019-03-25T21:06:30.537Z,2.8
2019-03-25T21:06:43.226Z,3
2019-03-25T21:06:57.906Z,2.8
2019-03-25T21:07:10.625Z,2.6
2019-03-25T21:07:24.109Z,3.3
2019-03-25T21:07:36.705Z,2.9
2019-03-25T21:07:49.122Z,3
2019-03-25T21:08:01.516Z,2.7
2019-03-25T21:08:13.987Z,2.3
2019-03-25T21:08:27.379Z,1.8
2019-03-25T21:08:39.853Z,1.8
2019-03-25T21:08:52.091Z,2
2019-03-25T21:09:04.378Z,2.3
2019-03-25T21:09:16.926Z,2.3
2019-03-25T21:09:30.496Z,2.2
2019-03-25T21:09:44.056Z,2.7
2019-03-25T21:09:56.642Z,2.3
2019-03-25T21:10:09.511Z,2.5
2019-03-25T21:10:22.166Z,2.3
2019-03-25T21:10:34.847Z,2.4
2019-03-25T21:10:48.210Z,2.5
2019-03-25T21:11:00.578Z,2.7
2019-03-25T21:11:12.782Z,2.1
2019-03-25T21:11:25.331Z,1.9
2019-03-25T21:11:37.872Z,1.9
2019-03-25T21:11:50.222Z,2.2
2019-03-25T21:12:02.552Z,2.1
2019-03-25T21:12:14.919Z,2.1
2019-03-25T21:12:27.374Z,2.1
2019-03-25T21:12:41.715Z,2
2019-03-25T21:12:54.044Z,2.2
2019-03-25T21:13:06.422Z,2.7
2019-03-25T21:13:18.635Z,2.4
2019-03-25T21:13:31.342Z,2.9
2019-03-25T21:13:43.951Z,2.7
2019-03-25T21:13:57.362Z,2.2
2019-03-25T21:14:10.871Z,2
2019-03-25T21:14:23.311Z,2.2
2019-03-25T21:14:35.930Z,2.3
2019-03-25T21:14:48.458Z,2.3
2019-03-25T21:15:00.789Z,2.4
2019-03-25T21:15:14.283Z,2.1
2019-03-25T21:15:26.648Z,1.7
2019-03-25T21:15:40.179Z,1.9
2019-03-25T21:15:52.734Z,2.1
2019-03-25T21:16:05.366Z,2
2019-03-25T21:16:17.949Z,2
2019-03-25T21:16:30.433Z,2.1
2019-03-25T21:16:43.023Z,2.2
2019-03-25T21:16:55.559Z,2.1
2019-03-25T21:17:07.977Z,2
2019-03-25T21:17:20.541Z,1.8
2019-03-25T21:17:33.006Z,2.1
2019-03-25T21:17:45.418Z,2.2
2019-03-25T21:17:59.793Z,1.8
2019-03-25T21:18:12.305Z,1.8
2019-03-25T21:18:26.004Z,1.5
2019-03-25T21:18:38.477Z,1.7
2019-03-25T21:18:52.357Z,2
2019-03-25T21:19:04.054Z,2.8
2019-03-25T21:19:16.316Z,2.9
2019-03-25T21:19:28.772Z,2.6
2019-03-25T21:19:40.955Z,2.6
2019-03-25T21:19:53.199Z,2.5
2019-03-25T21:20:05.325Z,2.7
2019-03-25T21:20:18.403Z,2.5
2019-03-25T21:20:30.689Z,1.9
2019-03-25T21:20:43.109Z,1.9
2019-03-25T21:20:55.497Z,1.8
2019-03-25T21:21:07.861Z,1.8
2019-03-25T21:21:20.266Z,1.8
2019-03-25T21:21:32.751Z,2.2
2019-03-25T21:21:45.223Z,2.2
2019-03-25T21:21:59.124Z,2
2019-03-25T21:22:12.570Z,1.8
2019-03-25T21:22:25.077Z,2.2
2019-03-25T21:22:37.585Z,2.1
2019-03-25T21:22:50.086Z,1.9
2019-03-25T21:23:02.591Z,2.4
2019-03-25T21:23:14.946Z,2.6
2019-03-25T21:23:27.402Z,2.4
2019-03-25T21:23:40.053Z,2.1
2019-03-25T21:23:54.013Z,2
2019-03-25T21:24:07.044Z,1.9
2019-03-25T21:24:20.043Z,2.1
2019-03-25T21:24:32.928Z,1.8
2019-03-25T21:24:45.326Z,1.9
2019-03-25T21:24:57.674Z,1.9
2019-03-25T21:25:10.032Z,2.2
2019-03-25T21:25:22.633Z,2
2019-03-25T21:25:36.358Z,2.2
2019-03-25T21:25:49.214Z,2.5
2019-03-25T21:26:01.835Z,2.1
2019-03-25T21:26:15.142Z,2
2019-03-25T21:26:27.506Z,1.9
2019-03-25T21:26:39.943Z,2.1
2019-03-25T21:26:52.404Z,1.9
2019-03-25T21:27:05.180Z,1.8
2019-03-25T21:27:18.010Z,1.9
2019-03-25T21:27:30.743Z,2
2019-03-25T21:27:43.580Z,1.9
2019-03-25T21:27:56.300Z,2.1
2019-03-25T21:28:08.963Z,2.2
2019-03-25T21:28:22.650Z,2.1
2019-03-25T21:28:35.097Z,2
2019-03-25T21:28:48.273Z,1.8
2019-03-25T21:29:00.544Z,1.9
2019-03-25T21:30:18.766Z,3.1
2019-03-25T21:30:32.895Z,3.8
2019-03-25T21:30:51.766Z,3.9
2019-03-25T21:31:03.947Z,3.7
2019-03-25T21:31:16.017Z,3.7
2019-03-25T21:31:29.049Z,3.7
2019-03-25T21:31:42.096Z,3.8
2019-03-25T21:31:54.241Z,4.1
2019-03-25T21:32:07.293Z,3.9
2019-03-25T21:32:19.423Z,3.5
2019-03-25T21:32:31.644Z,3.1
2019-03-25T21:32:57.177Z,3.2
2019-03-25T21:33:03.549Z,4
2019-03-25T21:33:15.704Z,4
2019-03-25T21:33:27.776Z,3.8
2019-03-25T21:33:39.791Z,4
2019-03-25T21:33:51.862Z,4.1
2019-03-25T21:34:03.983Z,3.9
2019-03-25T21:34:16.084Z,3.5
2019-03-25T21:34:28.284Z,3.4
2019-03-25T21:34:40.358Z,3.7
2019-03-25T21:34:52.523Z,3.7
2019-03-25T21:35:04.669Z,3.5
2019-03-25T21:35:17.759Z,3.6
2019-03-25T21:35:29.722Z,3.3
2019-03-25T21:35:41.870Z,3.5
2019-03-25T21:35:53.984Z,4
2019-03-25T21:36:05.956Z,3.9
2019-03-25T21:36:17.995Z,4.2
2019-03-25T21:36:30.055Z,3.8
2019-03-25T21:36:42.314Z,3.7
2019-03-25T21:36:55.200Z,4
2019-03-25T21:37:08.277Z,4.1
2019-03-25T21:37:20.397Z,3.6
2019-03-25T21:37:32.443Z,3.5
2019-03-25T21:37:44.706Z,4.3
2019-03-25T21:37:56.618Z,4.6
2019-03-25T21:38:08.663Z,4.4
2019-03-25T21:38:20.806Z,4
2019-03-25T21:38:32.821Z,3.7
2019-03-25T21:38:45.922Z,4.6
2019-03-25T21:38:58.951Z,4.9
2019-03-25T21:39:12.026Z,4
2019-03-25T21:39:25.058Z,4
2019-03-25T21:39:37.114Z,4.1
2019-03-25T21:39:49.298Z,3.7
2019-03-25T21:40:02.432Z,3.8
2019-03-25T21:40:14.518Z,4.2
2019-03-25T21:40:26.559Z,3.8
2019-03-25T21:40:39.709Z,3.7
2019-03-25T21:40:53.816Z,4.3
2019-03-25T21:41:06.622Z,5.2
2019-03-25T21:41:18.636Z,5
2019-03-25T21:41:30.736Z,4.9
2019-03-25T21:41:42.755Z,5.1
2019-03-25T21:41:55.800Z,4.4
2019-03-25T21:42:08.867Z,4.4
2019-03-25T21:42:20.942Z,4.5
2019-03-25T21:42:34.973Z,4.8
2019-03-25T21:42:47.072Z,4.9
2019-03-25T21:42:59.161Z,4.7
2019-03-25T21:43:13.296Z,4.1
2019-03-25T21:43:25.286Z,3.9
2019-03-25T21:43:37.392Z,3.9
2019-03-25T21:43:49.533Z,4.4
2019-03-25T21:44:01.596Z,4.5
2019-03-25T21:44:13.766Z,4.3
2019-03-25T21:44:26.127Z,4.1
2019-03-25T21:44:38.180Z,4.9
2019-03-25T21:44:50.279Z,4.6
2019-03-25T21:45:02.460Z,4.1
2019-03-25T21:45:14.389Z,3.9
2019-03-25T21:45:27.466Z,4.2
2019-03-25T21:45:39.540Z,4.3
2019-03-25T21:45:51.511Z,4
2019-03-25T21:46:03.583Z,4.5
2019-03-25T21:46:16.714Z,4.1
2019-03-25T21:46:29.724Z,4
2019-03-25T21:46:41.810Z,3.9
2019-03-25T21:46:53.976Z,3.9
2019-03-25T21:47:05.981Z,4.4
2019-03-25T21:47:18.061Z,4.6
2019-03-25T21:47:31.154Z,3.9
2019-03-25T21:47:43.116Z,3.8
2019-03-25T21:47:55.182Z,4
2019-03-25T21:48:07.288Z,4.3
2019-03-25T21:48:19.362Z,4.2
2019-03-25T21:48:32.425Z,4.5
2019-03-25T21:48:46.460Z,4.6
2019-03-25T21:48:59.556Z,4.7
2019-03-25T21:49:12.654Z,4.7
2019-03-25T21:49:24.651Z,4.7
2019-03-25T21:49:37.772Z,5.6
2019-03-25T21:49:49.853Z,5.7
2019-03-25T21:50:03.855Z,4.4
2019-03-25T21:50:16.066Z,4.1
2019-03-25T21:50:29.103Z,4
2019-03-25T21:50:41.205Z,4
2019-03-25T21:50:53.195Z,4.1
2019-03-25T21:51:05.341Z,4.9
2019-03-25T21:51:18.321Z,5
2019-03-25T21:51:30.451Z,4.6
2019-03-25T21:51:43.497Z,4.3
2019-03-25T21:51:55.698Z,4.8
2019-03-25T21:52:07.601Z,4.7
2019-03-25T21:52:19.651Z,4.5
2019-03-25T21:52:31.740Z,4.4
2019-03-25T21:52:44.933Z,4.4
2019-03-25T21:52:56.941Z,4.8
2019-03-25T21:53:09.300Z,4.7
2019-03-25T21:53:21.381Z,4.8
2019-03-25T21:53:33.354Z,5.2
2019-03-25T21:53:45.384Z,5.1
2019-03-25T21:53:59.506Z,5.3
2019-03-25T21:54:11.539Z,5.6
2019-03-25T21:54:23.606Z,5
2019-03-25T21:54:35.657Z,4.8
2019-03-25T21:54:48.639Z,4.3
2019-03-25T21:55:00.725Z,5
2019-03-25T21:55:12.851Z,5.8
2019-03-25T21:55:24.939Z,4.8
2019-03-25T21:55:36.956Z,4.5
2019-03-25T21:55:49.061Z,4.3
2019-03-25T21:56:02.065Z,4.5
2019-03-25T21:56:14.188Z,5.3
2019-03-25T21:56:28.201Z,5.9
2019-03-25T21:56:40.264Z,5.9
2019-03-25T21:56:53.376Z,4.8
2019-03-25T21:57:07.494Z,4.9
2019-03-25T21:57:19.484Z,5.1
2019-03-25T21:57:31.558Z,5.2
2019-03-25T21:57:43.587Z,5.1
2019-03-25T21:57:55.653Z,4.7
2019-03-25T21:58:07.779Z,5.1
2019-03-25T21:58:20.841Z,4.8
2019-03-25T21:58:32.851Z,4.8
2019-03-25T21:58:45.154Z,4.7
2019-03-25T21:59:00.257Z,5.6
2019-03-25T21:59:12.116Z,5.6
2019-03-25T21:59:26.195Z,4.6
2019-03-25T21:59:38.291Z,4.8
2019-03-25T21:59:50.316Z,6
2019-03-25T22:00:02.452Z,6.1
2019-03-25T22:00:15.484Z,6
2019-03-25T22:00:27.596Z,5.2
2019-03-25T22:00:40.463Z,5.1
2019-03-25T22:00:52.424Z,5.9
2019-03-25T22:01:04.529Z,5.5
2019-03-25T22:01:16.615Z,5.3
2019-03-25T22:01:28.611Z,4.7
2019-03-25T22:01:40.703Z,4.6
2019-03-25T22:01:52.769Z,4.7
2019-03-25T22:02:04.867Z,5.1
2019-03-25T22:02:16.954Z,5.7
2019-03-25T22:02:28.988Z,6.3
2019-03-25T22:02:41.048Z,6
2019-03-25T22:02:53.096Z,4.9
2019-03-25T22:03:13.143Z,6.3
2019-03-25T22:03:25.195Z,6.4
2019-03-25T22:03:38.250Z,5.4
2019-03-25T22:03:50.303Z,5
2019-03-25T22:04:03.372Z,4.9
2019-03-25T22:04:15.400Z,5.3
2019-03-25T22:04:27.464Z,5.1
2019-03-25T22:04:40.503Z,4.9
2019-03-25T22:04:52.564Z,5.2
2019-03-25T22:05:05.605Z,6
2019-03-25T22:05:17.694Z,5.2
2019-03-25T22:05:29.742Z,5.4
2019-03-25T22:05:41.793Z,5.8
2019-03-25T22:05:53.841Z,5.5
2019-03-25T22:06:05.931Z,5.4
2019-03-25T22:06:17.974Z,5.4
2019-03-25T22:06:30.075Z,4.9
2019-03-25T22:06:42.121Z,4.5
2019-03-25T22:06:54.230Z,5
2019-03-25T22:07:06.230Z,4.9
2019-03-25T22:07:18.336Z,4.5
2019-03-25T22:07:30.401Z,5
2019-03-25T22:07:42.488Z,5.6
2019-03-25T22:07:54.532Z,5.9
2019-03-25T22:08:06.599Z,5.5
2019-03-25T22:08:18.630Z,6.3
2019-03-25T22:08:30.679Z,5.7
2019-03-25T22:08:42.755Z,5.3
2019-03-25T22:08:54.822Z,5.6
2019-03-25T22:09:07.893Z,6.1
2019-03-25T22:09:19.977Z,5.9
2019-03-25T22:09:32.014Z,5.7
2019-03-25T22:09:44.076Z,5.6
2019-03-25T22:09:56.117Z,6
2019-03-25T22:10:08.199Z,5.6
2019-03-25T22:10:20.256Z,5.4
2019-03-25T22:10:32.327Z,6.5
2019-03-25T22:10:46.367Z,6.6
2019-03-25T22:10:59.408Z,5.7
2019-03-25T22:11:11.448Z,5.8
2019-03-25T22:11:23.513Z,5.4
2019-03-25T22:11:35.555Z,5.4
2019-03-25T22:11:47.616Z,5.1
2019-03-25T22:11:59.675Z,5.3
2019-03-25T22:12:11.793Z,5.6
2019-03-25T22:12:23.842Z,5.6
2019-03-25T22:12:35.910Z,5.5
2019-03-25T22:12:47.986Z,5.6
2019-03-25T22:13:00.023Z,5.1
2019-03-25T22:13:12.067Z,5.3
2019-03-25T22:13:24.112Z,5.7
2019-03-25T22:13:36.151Z,5.6
2019-03-25T22:13:48.219Z,6.4
2019-03-25T22:14:00.287Z,5.8
2019-03-25T22:14:13.327Z,5
2019-03-25T22:14:25.391Z,5
2019-03-25T22:14:37.434Z,5.5
2019-03-25T22:14:50.567Z,6.8
2019-03-25T22:15:02.625Z,7
2019-03-25T22:15:14.684Z,5.2
2019-03-25T22:15:26.847Z,5
2019-03-25T22:15:38.913Z,5.5
2019-03-25T22:15:50.954Z,5.8
2019-03-25T22:16:02.995Z,5.5
2019-03-25T22:16:15.066Z,5.7
2019-03-25T22:16:27.157Z,5.7
2019-03-25T22:16:39.198Z,5.6
2019-03-25T22:16:51.247Z,5.8
2019-03-25T22:17:03.294Z,5.4
2019-03-25T22:17:15.331Z,5.5
2019-03-25T22:17:28.384Z,5.2
2019-03-25T22:17:40.451Z,5.7
2019-03-25T22:17:52.532Z,5.7
2019-03-25T22:18:04.586Z,5.7
2019-03-25T22:18:16.616Z,5.8
2019-03-25T22:18:30.767Z,6.9
2019-03-25T22:18:42.725Z,6.5
2019-03-25T22:18:54.765Z,5.7
2019-03-25T22:19:06.806Z,6
2019-03-25T22:19:18.880Z,5.3
2019-03-25T22:19:30.936Z,4.6
2019-03-25T22:19:42.994Z,5.1
2019-03-25T22:19:55.040Z,6.9
2019-03-25T22:20:07.098Z,7.3
2019-03-25T22:20:19.173Z,6.7
2019-03-25T22:20:31.222Z,5.6
2019-03-25T22:20:43.256Z,5.6
2019-03-25T22:20:55.926Z,6.2
2019-03-25T22:21:07.962Z,6.4
2019-03-25T22:21:20.016Z,6.4
2019-03-25T22:21:32.073Z,5.8
2019-03-25T22:21:44.137Z,6
2019-03-25T22:21:56.177Z,6.7
2019-03-25T22:22:08.229Z,6.3
2019-03-25T22:22:20.277Z,6.2
2019-03-25T22:22:32.310Z,5.9
2019-03-25T22:22:44.367Z,7.3
2019-03-25T22:22:56.452Z,7.8
2019-03-25T22:23:08.505Z,7.3
2019-03-25T22:23:20.550Z,5.5
2019-03-25T22:23:32.604Z,6
2019-03-25T22:23:44.649Z,5.9
2019-03-25T22:23:57.690Z,5.5
2019-03-25T22:24:09.736Z,5.6
2019-03-25T22:24:21.800Z,5.9
2019-03-25T22:24:33.861Z,5.8
2019-03-25T22:24:45.934Z,6
2019-03-25T22:24:57.975Z,6.3
2019-03-25T22:25:10.023Z,6.2
2019-03-25T22:25:23.091Z,7
2019-03-25T22:25:35.136Z,6.7
2019-03-25T22:25:47.281Z,6.3
2019-03-25T22:25:59.343Z,6.1
2019-03-25T22:26:11.440Z,5.6
2019-03-25T22:26:23.478Z,5.5
2019-03-25T22:26:35.515Z,6.6
2019-03-25T22:26:47.571Z,6.6
2019-03-25T22:26:59.786Z,6.2
2019-03-25T22:27:11.898Z,6
2019-03-25T22:27:23.950Z,5.5
2019-03-25T22:27:36.015Z,5.3
2019-03-25T22:27:49.063Z,5.9
2019-03-25T22:28:01.119Z,6.2
2019-03-25T22:28:13.203Z,6.4
2019-03-25T22:28:25.261Z,6.3
2019-03-25T22:28:38.316Z,5.9
2019-03-25T22:28:50.373Z,6
2019-03-25T22:29:02.419Z,6
2019-03-25T22:29:14.469Z,6.5
2019-03-25T22:29:26.549Z,7.3
2019-03-25T22:29:38.607Z,7
2019-03-25T22:29:50.666Z,6.4
2019-03-25T22:30:02.720Z,5.6
2019-03-25T22:30:14.803Z,6.2
2019-03-25T22:30:28.838Z,6.9
2019-03-25T22:30:40.947Z,6.7
2019-03-25T22:30:53.046Z,6.3
2019-03-25T22:31:05.142Z,6
2019-03-25T22:31:17.234Z,6.6
2019-03-25T22:31:29.340Z,6.9
2019-03-25T22:31:41.388Z,7.1
2019-03-25T22:31:53.442Z,6.4
2019-03-25T22:32:05.506Z,7
2019-03-25T22:32:17.557Z,6.8
2019-03-25T22:32:29.620Z,6.1
2019-03-25T22:32:42.720Z,5.9
2019-03-25T22:32:54.780Z,6.3
2019-03-25T22:33:06.841Z,6.2
2019-03-25T22:33:26.214Z,7.2
2019-03-25T22:33:37.921Z,6.8
2019-03-25T22:33:49.975Z,6.6
2019-03-25T22:34:02.094Z,7
2019-03-25T22:34:14.163Z,6.3
2019-03-25T22:34:27.250Z,6.2
2019-03-25T22:34:39.308Z,6.3
2019-03-25T22:34:51.365Z,6.1
2019-03-25T22:35:03.421Z,6.8
2019-03-25T22:35:16.484Z,6.8
2019-03-25T22:35:28.568Z,7.3
2019-03-25T22:35:40.644Z,6.7
2019-03-25T22:35:52.711Z,7.3
2019-03-25T22:36:05.773Z,7.4
2019-03-25T22:36:17.869Z,7.2
2019-03-25T22:36:29.949Z,6.6
2019-03-25T22:36:42.067Z,6.1
2019-03-25T22:36:56.117Z,6.8
2019-03-25T22:37:08.171Z,6.8
2019-03-25T22:37:20.265Z,7
2019-03-25T22:37:32.339Z,6.6
2019-03-25T22:37:45.169Z,6.4
2019-03-25T22:37:57.275Z,6.6
2019-03-25T22:38:09.338Z,6.1
2019-03-25T22:38:21.392Z,7.6
2019-03-25T22:38:33.454Z,8.2
2019-03-25T22:38:45.530Z,7.2
2019-03-25T22:38:58.566Z,6
2019-03-25T22:39:10.620Z,6.5
2019-03-25T22:39:22.711Z,7.5
2019-03-25T22:39:34.786Z,7.3
2019-03-25T22:39:46.857Z,7.2
2019-03-25T22:39:59.901Z,6.8
2019-03-25T22:40:11.963Z,7.9
2019-03-25T22:40:24.071Z,8.3
2019-03-25T22:40:36.132Z,7.1
2019-03-25T22:40:48.219Z,6.5
2019-03-25T22:41:01.265Z,5.8
2019-03-25T22:41:14.322Z,5.7
2019-03-25T22:41:27.084Z,6.3
2019-03-25T22:41:40.136Z,6.1
2019-03-25T22:41:52.181Z,6.7
2019-03-25T22:42:04.221Z,6.6
2019-03-25T22:42:16.277Z,7.3
2019-03-25T22:42:28.366Z,6.4
2019-03-25T22:42:40.452Z,6.1
2019-03-25T22:42:52.543Z,6.9
2019-03-25T22:43:04.618Z,6.9
2019-03-25T22:43:16.698Z,6
2019-03-25T22:43:28.751Z,6.2
2019-03-25T22:43:40.802Z,6.5
2019-03-25T22:43:52.865Z,6.6
2019-03-25T22:44:04.972Z,7.7
2019-03-25T22:44:17.043Z,7.5
2019-03-25T22:44:29.113Z,6.8
2019-03-25T22:44:42.191Z,6.7
2019-03-25T22:44:54.277Z,6.3
2019-03-25T22:45:06.333Z,6.7
2019-03-25T22:45:18.402Z,6.9
2019-03-25T22:45:30.468Z,6.9
2019-03-25T22:45:43.513Z,7.2
2019-03-25T22:45:55.565Z,6.8
2019-03-25T22:46:07.645Z,7.3
2019-03-25T22:46:19.696Z,7.2
2019-03-25T22:46:31.755Z,7.4
2019-03-25T22:46:43.801Z,7.1
2019-03-25T22:46:55.843Z,7.2
2019-03-25T22:47:07.920Z,6.6
2019-03-25T22:47:19.980Z,6.7
2019-03-25T22:47:33.042Z,6.7
2019-03-25T22:47:45.134Z,6.8
2019-03-25T22:47:57.221Z,6.5
2019-03-25T22:48:11.238Z,6.8
2019-03-25T22:48:23.328Z,6.1
2019-03-25T22:48:35.394Z,6.6
2019-03-25T22:48:47.518Z,6.7
2019-03-25T22:48:59.654Z,6.1
2019-03-25T22:49:11.711Z,6.4
2019-03-25T22:49:23.784Z,6.1
2019-03-25T22:49:36.883Z,7.1
2019-03-25T22:49:48.928Z,7.7
2019-03-25T22:50:00.973Z,7.5
2019-03-25T22:50:13.030Z,7.3
2019-03-25T22:50:25.082Z,6.3
2019-03-25T22:50:37.208Z,6.6
2019-03-25T22:50:49.260Z,6.4
2019-03-25T22:51:01.303Z,6.7
2019-03-25T22:51:13.373Z,6.6
2019-03-25T22:51:25.423Z,6.4
2019-03-25T22:51:37.485Z,6.6
2019-03-25T22:51:49.543Z,7.4
2019-03-25T22:52:01.640Z,7.9
2019-03-25T22:52:13.696Z,6.4
2019-03-25T22:52:25.766Z,6
2019-03-25T22:52:37.849Z,5.6
2019-03-25T22:52:49.921Z,6.2
2019-03-25T22:53:01.975Z,7.2
2019-03-25T22:53:14.020Z,6.6
2019-03-25T22:53:26.074Z,6.5
2019-03-25T22:53:38.127Z,6.5
2019-03-25T22:53:50.194Z,7.3
2019-03-25T22:54:02.257Z,6.6
2019-03-25T22:54:14.330Z,6.1
2019-03-25T22:54:26.402Z,5.6
2019-03-25T22:54:38.533Z,5.7
2019-03-25T22:54:50.578Z,5.5
2019-03-25T22:55:02.657Z,5.5
2019-03-25T22:55:14.754Z,6
2019-03-25T22:55:28.922Z,6.3
2019-03-25T22:55:40.983Z,6.8
2019-03-25T22:55:54.088Z,7.1
2019-03-25T22:56:06.138Z,7.1
2019-03-25T22:56:18.200Z,8.3
2019-03-25T22:56:30.247Z,8
2019-03-25T22:56:42.319Z,7
2019-03-25T22:56:54.388Z,7.7
2019-03-25T22:57:06.450Z,6.6
2019-03-25T22:57:18.558Z,5.8
2019-03-25T22:57:30.608Z,5.8
2019-03-25T22:57:42.661Z,5.3
2019-03-25T22:57:54.713Z,5.7
2019-03-25T22:58:06.781Z,7
2019-03-25T22:58:18.832Z,7.6
2019-03-25T22:58:30.892Z,6.6
2019-03-25T22:58:43.018Z,6.1
2019-03-25T22:58:55.085Z,7.3
2019-03-25T22:59:07.144Z,7.9
2019-03-25T22:59:20.206Z,7.8
2019-03-25T22:59:32.271Z,5.9
2019-03-25T22:59:44.320Z,6.4
2019-03-25T22:59:56.387Z,7.5
2019-03-25T23:00:08.489Z,7.5
2019-03-25T23:00:20.537Z,6.5
2019-03-25T23:00:32.598Z,6.4
2019-03-25T23:00:44.652Z,6.2
2019-03-25T23:00:56.788Z,6.5
2019-03-25T23:01:08.841Z,6.9
2019-03-25T23:01:20.900Z,7
2019-03-25T23:01:32.935Z,6.4
2019-03-25T23:01:45.015Z,6.8
2019-03-25T23:01:57.056Z,8.4
2019-03-25T23:02:09.131Z,7.7
2019-03-25T23:02:21.198Z,6.6
2019-03-25T23:02:33.258Z,5.7
2019-03-25T23:02:45.295Z,5.5
2019-03-25T23:02:57.366Z,6.1
2019-03-25T23:03:09.413Z,6.7
2019-03-25T23:03:21.478Z,7
2019-03-25T23:03:41.435Z,6.7
2019-03-25T23:03:54.485Z,6.5
2019-03-25T23:04:06.532Z,6.3
2019-03-25T23:04:18.595Z,6.5
2019-03-25T23:04:30.646Z,6
2019-03-25T23:04:42.730Z,5.8
2019-03-25T23:04:54.837Z,6.6
2019-03-25T23:05:06.961Z,6.7
2019-03-25T23:05:19.052Z,7.4
2019-03-25T23:05:31.106Z,7.4
2019-03-25T23:05:43.147Z,5.8
2019-03-25T23:05:55.213Z,5.9
2019-03-25T23:06:07.265Z,6
2019-03-25T23:06:20.294Z,6.4
2019-03-25T23:06:32.355Z,6.5
2019-03-25T23:06:44.408Z,6.4
2019-03-25T23:06:56.473Z,5.8
2019-03-25T23:07:08.520Z,5.2
2019-03-25T23:07:21.566Z,5.7
2019-03-25T23:07:33.660Z,6.3
2019-03-25T23:07:46.703Z,6.5
2019-03-25T23:07:58.782Z,6.2
2019-03-25T23:08:10.833Z,5.9
2019-03-25T23:08:23.870Z,6.8
2019-03-25T23:08:35.925Z,6.4
2019-03-25T23:08:48.009Z,5.2
2019-03-25T23:09:01.045Z,5.2
2019-03-25T23:09:13.128Z,5.7
2019-03-25T23:09:25.161Z,6.7
2019-03-25T23:09:37.233Z,7.4
2019-03-25T23:09:49.277Z,6.8
2019-03-25T23:10:01.345Z,6.2
2019-03-25T23:10:14.378Z,6.2
2019-03-25T23:10:26.429Z,6.9
2019-03-25T23:10:38.584Z,7.3
2019-03-25T23:10:50.629Z,7
2019-03-25T23:11:02.706Z,6.2
2019-03-25T23:11:14.774Z,5.7
2019-03-25T23:11:26.841Z,5.6
2019-03-25T23:11:38.891Z,6
2019-03-25T23:11:50.950Z,5.7
2019-03-25T23:12:03.007Z,6.3
2019-03-25T23:12:15.064Z,7
2019-03-25T23:12:27.205Z,7.2
2019-03-25T23:12:39.256Z,6.2
2019-03-25T23:12:51.315Z,6.2
2019-03-25T23:13:03.367Z,6.3
2019-03-25T23:13:15.397Z,6
2019-03-25T23:13:27.437Z,6.1
2019-03-25T23:13:39.630Z,5.8
2019-03-25T23:13:51.677Z,5.7
2019-03-25T23:14:03.738Z,6.5
2019-03-25T23:14:15.815Z,6.9
2019-03-25T23:14:27.931Z,6.9
2019-03-25T23:14:39.965Z,6.4
2019-03-25T23:14:52.005Z,5.8
2019-03-25T23:15:04.053Z,5.4
2019-03-25T23:15:16.119Z,5.4
2019-03-25T23:15:28.167Z,6
2019-03-25T23:15:40.224Z,6.3
2019-03-25T23:15:52.283Z,7.6
2019-03-25T23:16:04.347Z,7.3
2019-03-25T23:16:17.374Z,5.8
2019-03-25T23:16:29.441Z,6.3
2019-03-25T23:16:41.495Z,6.8
2019-03-25T23:16:53.544Z,7.1
2019-03-25T23:17:05.609Z,6.7
2019-03-25T23:17:17.661Z,5.9
2019-03-25T23:17:29.725Z,5.8
2019-03-25T23:17:41.785Z,5.5
2019-03-25T23:17:53.826Z,6.2
2019-03-25T23:18:05.898Z,6.1
2019-03-25T23:18:17.934Z,5.9
2019-03-25T23:18:30.989Z,6.5
2019-03-25T23:18:43.032Z,6.1
2019-03-25T23:18:55.062Z,5.9
2019-03-25T23:19:07.099Z,5.7
2019-03-25T23:19:19.133Z,5.3
2019-03-25T23:19:31.199Z,5.9
2019-03-25T23:19:45.260Z,6.3
2019-03-25T23:19:57.330Z,6.5
2019-03-25T23:20:09.391Z,5.8
2019-03-25T23:20:21.474Z,6.1
2019-03-25T23:20:33.553Z,7.1
2019-03-25T23:20:45.637Z,6.5
2019-03-25T23:20:57.740Z,7.1
2019-03-25T23:21:09.803Z,6.8
2019-03-25T23:21:21.845Z,7.2
2019-03-25T23:21:33.893Z,6.4
2019-03-25T23:21:45.957Z,5.5
2019-03-25T23:21:58.039Z,5.4
2019-03-25T23:22:10.139Z,6.2
2019-03-25T23:22:22.204Z,6.1
2019-03-25T23:22:35.229Z,6.2
2019-03-25T23:22:48.262Z,6.1
2019-03-25T23:23:00.356Z,6
2019-03-25T23:23:12.392Z,6.8
2019-03-25T23:23:24.444Z,6.6
2019-03-25T23:23:36.491Z,5.8
2019-03-25T23:23:48.543Z,5.7
2019-03-25T23:24:00.609Z,6.8
2019-03-25T23:24:12.675Z,7
2019-03-25T23:24:24.712Z,7.7
2019-03-25T23:24:36.821Z,6.2
2019-03-25T23:24:48.890Z,6
2019-03-25T23:25:01.043Z,5.7
2019-03-25T23:25:13.123Z,6
2019-03-25T23:25:25.196Z,6.3
2019-03-25T23:25:37.283Z,5.9
2019-03-25T23:25:49.358Z,5.2
2019-03-25T23:26:01.407Z,5.6
2019-03-25T23:26:13.447Z,5.4
2019-03-25T23:26:25.489Z,5.2
2019-03-25T23:26:37.536Z,5.2
2019-03-25T23:26:49.577Z,5.6
2019-03-25T23:27:01.619Z,6.1
2019-03-25T23:27:13.682Z,7.3
2019-03-25T23:27:26.747Z,7.7
2019-03-25T23:27:38.814Z,6.9
2019-03-25T23:27:50.889Z,6.3
2019-03-25T23:28:02.942Z,5.5
2019-03-25T23:28:15.999Z,6.4